Time;durP1;ratioP1;P1;durP2;ratioP2;P2;SDS_P1;SDS_P2;PMS_P1;PMS_P2;Temp;Humidity;BMP_temperature;BMP_pressure;BME280_temperature;BME280_humidity;BME280_pressure;Samples;Min_cycle;Max_cycle;Signal;HPM_P1;HPM_P2
2023/12/04 00:00:39;;;;;;;18.63;8.40;;;;;;;;;;5013013;28;20037;-62
2023/12/04 00:03:04;;;;;;;19.35;8.77;;;;;;;;;;5025977;28;20041;-61
2023/12/04 00:05:30;;;;;;;17.38;8.80;;;;;;;;;;5032806;28;20144;-61
2023/12/04 00:07:55;;;;;;;18.38;8.95;;;;;;;;;;5033533;28;20052;-61
2023/12/04 00:10:21;;;;;;;17.20;8.60;;;;;;;;;;5016889;28;20089;-61
2023/12/04 00:12:46;;;;;;;17.10;8.52;;;;;;;;;;5013640;28;20036;-61
2023/12/04 00:15:12;;;;;;;17.67;8.25;;;;;;;;;;5013603;28;20057;-61
2023/12/04 00:17:39;;;;;;;17.95;8.63;;;;;;;;;;5012622;28;20571;-61
2023/12/04 00:20:09;;;;;;;21.85;9.38;;;;;;;;;;5013564;28;20435;-63
2023/12/04 00:22:34;;;;;;;18.20;8.30;;;;;;;;;;5020183;28;20064;-61
2023/12/04 00:25:00;;;;;;;17.67;8.25;;;;;;;;;;5033398;28;20416;-61
2023/12/04 00:27:26;;;;;;;18.80;8.98;;;;;;;;;;5047735;28;20409;-61
2023/12/04 00:29:56;;;;;;;16.08;7.53;;;;;;;;;;5035836;28;20034;-61
2023/12/04 00:32:22;;;;;;;19.42;8.52;;;;;;;;;;5047424;28;20068;-61
2023/12/04 00:34:47;;;;;;;16.65;8.20;;;;;;;;;;5051666;28;20060;-61
2023/12/04 00:37:12;;;;;;;16.73;8.50;;;;;;;;;;5050080;28;20064;-61
2023/12/04 00:39:38;;;;;;;19.08;9.20;;;;;;;;;;5042877;28;20052;-61
2023/12/04 00:42:04;;;;;;;18.45;8.73;;;;;;;;;;5039652;28;20037;-61
2023/12/04 00:44:29;;;;;;;16.30;8.23;;;;;;;;;;5034659;28;20048;-61
2023/12/04 00:46:54;;;;;;;17.10;8.85;;;;;;;;;;5042417;28;20379;-61
2023/12/04 00:49:20;;;;;;;16.88;8.57;;;;;;;;;;5049663;28;20040;-61
2023/12/04 00:51:45;;;;;;;14.52;7.78;;;;;;;;;;5035281;28;20395;-61
2023/12/04 00:54:11;;;;;;;15.65;8.30;;;;;;;;;;5047327;28;20056;-61
2023/12/04 00:56:39;;;;;;;17.95;8.23;;;;;;;;;;5040544;28;20064;-61
2023/12/04 00:59:06;;;;;;;16.63;8.10;;;;;;;;;;5051319;28;20036;-61
2023/12/04 01:01:32;;;;;;;16.92;8.13;;;;;;;;;;5048898;28;20391;-61
2023/12/04 01:03:57;;;;;;;17.15;7.57;;;;;;;;;;5047274;28;20033;-61
2023/12/04 01:06:23;;;;;;;16.90;8.02;;;;;;;;;;5050191;28;20078;-61
2023/12/04 01:08:50;;;;;;;16.23;8.00;;;;;;;;;;5045400;28;20083;-61
2023/12/04 01:11:16;;;;;;;17.30;8.50;;;;;;;;;;5030956;28;20065;-61
2023/12/04 01:13:42;;;;;;;17.55;8.35;;;;;;;;;;5047693;28;20041;-61
2023/12/04 01:16:09;;;;;;;16.40;7.65;;;;;;;;;;5047245;28;20127;-62
2023/12/04 01:18:35;;;;;;;17.30;7.90;;;;;;;;;;5044210;28;20098;-61
2023/12/04 01:21:00;;;;;;;17.77;8.35;;;;;;;;;;5050157;28;20087;-61
2023/12/04 01:23:26;;;;;;;18.00;8.38;;;;;;;;;;5042821;28;20079;-61
2023/12/04 01:25:51;;;;;;;15.70;8.00;;;;;;;;;;5030585;28;20034;-61
2023/12/04 01:28:16;;;;;;;15.45;7.32;;;;;;;;;;5042066;28;20037;-61
2023/12/04 01:30:42;;;;;;;14.85;7.75;;;;;;;;;;5028812;28;20064;-62
2023/12/04 01:33:08;;;;;;;16.05;7.68;;;;;;;;;;5048921;28;20098;-62
2023/12/04 01:35:33;;;;;;;16.52;7.75;;;;;;;;;;5048323;28;20025;-61
2023/12/04 01:37:59;;;;;;;15.77;7.68;;;;;;;;;;5048493;28;20120;-63
2023/12/04 01:40:24;;;;;;;16.70;7.90;;;;;;;;;;5041776;28;20048;-62
2023/12/04 01:42:50;;;;;;;16.45;7.93;;;;;;;;;;5043925;28;20205;-63
2023/12/04 01:45:16;;;;;;;16.08;7.55;;;;;;;;;;5049919;28;20036;-61
2023/12/04 01:47:41;;;;;;;15.48;7.53;;;;;;;;;;5050837;28;20025;-62
2023/12/04 01:50:07;;;;;;;14.35;7.30;;;;;;;;;;5041056;28;20442;-62
2023/12/04 01:52:33;;;;;;;15.73;7.38;;;;;;;;;;5037627;28;20037;-62
2023/12/04 01:54:59;;;;;;;13.15;6.93;;;;;;;;;;5051104;28;20413;-62
2023/12/04 01:57:24;;;;;;;14.30;6.97;;;;;;;;;;5044463;28;20049;-62
2023/12/04 01:59:50;;;;;;;14.40;7.28;;;;;;;;;;5045159;28;20059;-60
2023/12/04 02:02:16;;;;;;;14.40;7.10;;;;;;;;;;5036091;28;20033;-60
2023/12/04 02:04:41;;;;;;;14.43;7.55;;;;;;;;;;5047334;28;20173;-60
2023/12/04 02:07:09;;;;;;;14.88;6.97;;;;;;;;;;5027970;28;20370;-60
2023/12/04 02:09:34;;;;;;;16.15;7.78;;;;;;;;;;5052886;28;20029;-60
2023/12/04 02:12:00;;;;;;;15.75;7.68;;;;;;;;;;5043024;28;20041;-60
2023/12/04 02:14:26;;;;;;;14.10;6.72;;;;;;;;;;5048897;28;20037;-60
2023/12/04 02:16:52;;;;;;;15.57;7.47;;;;;;;;;;5034787;28;20479;-60
2023/12/04 02:19:17;;;;;;;14.68;6.95;;;;;;;;;;5029759;28;20530;-59
2023/12/04 02:21:43;;;;;;;15.48;7.30;;;;;;;;;;5030001;28;20041;-59
2023/12/04 02:24:08;;;;;;;12.73;6.53;;;;;;;;;;5039833;28;20068;-59
2023/12/04 02:26:47;;;;;;;13.65;7.32;;;;;;;;;;5034619;28;20025;-59
2023/12/04 02:29:21;;;;;;;15.10;7.57;;;;;;;;;;5041167;28;20055;-61
2023/12/04 02:31:50;;;;;;;14.23;7.28;;;;;;;;;;5043717;28;20086;-61
2023/12/04 02:34:17;;;;;;;15.55;7.03;;;;;;;;;;5045671;28;20407;-61
2023/12/04 02:36:43;;;;;;;13.45;6.97;;;;;;;;;;5041236;28;20028;-61
2023/12/04 02:39:09;;;;;;;14.00;6.85;;;;;;;;;;5019949;28;20033;-60
2023/12/04 02:41:34;;;;;;;14.77;7.57;;;;;;;;;;5012551;28;20083;-61
2023/12/04 02:44:00;;;;;;;12.10;6.75;;;;;;;;;;5011830;28;20026;-61
2023/12/04 02:46:25;;;;;;;14.23;6.75;;;;;;;;;;5017985;28;20089;-61
2023/12/04 02:48:51;;;;;;;11.90;6.32;;;;;;;;;;5044607;28;20036;-61
2023/12/04 02:51:16;;;;;;;14.40;6.63;;;;;;;;;;5033416;28;20034;-61
2023/12/04 02:53:41;;;;;;;14.52;6.90;;;;;;;;;;5026285;28;20041;-61
2023/12/04 02:56:07;;;;;;;11.50;6.03;;;;;;;;;;5039548;28;20061;-61
2023/12/04 02:58:34;;;;;;;13.57;6.82;;;;;;;;;;5036054;28;20109;-61
2023/12/04 03:00:59;;;;;;;13.10;6.53;;;;;;;;;;5047398;28;20498;-61
2023/12/04 03:03:25;;;;;;;11.50;6.60;;;;;;;;;;5045948;28;20040;-60
2023/12/04 03:05:50;;;;;;;13.63;7.05;;;;;;;;;;5031623;28;20026;-60
2023/12/04 03:08:16;;;;;;;11.27;6.28;;;;;;;;;;5045522;28;20098;-60
2023/12/04 03:10:41;;;;;;;12.68;6.45;;;;;;;;;;5044704;28;20061;-60
2023/12/04 03:13:07;;;;;;;13.45;6.97;;;;;;;;;;5049330;28;20045;-60
2023/12/04 03:15:32;;;;;;;11.23;6.07;;;;;;;;;;5047010;28;20086;-60
2023/12/04 03:18:00;;;;;;;13.25;7.10;;;;;;;;;;5053297;28;20029;-60
2023/12/04 03:20:25;;;;;;;12.93;6.60;;;;;;;;;;5052880;28;20388;-60
2023/12/04 03:22:51;;;;;;;13.23;6.47;;;;;;;;;;5053564;28;20137;-61
2023/12/04 03:25:18;;;;;;;12.60;6.18;;;;;;;;;;5033119;28;20033;-61
2023/12/04 03:27:43;;;;;;;10.88;5.97;;;;;;;;;;5050648;28;20037;-61
2023/12/04 03:30:09;;;;;;;14.00;6.40;;;;;;;;;;5049257;28;20037;-61
2023/12/04 03:32:34;;;;;;;11.20;5.40;;;;;;;;;;5047032;28;20032;-60
2023/12/04 03:35:01;;;;;;;10.43;5.70;;;;;;;;;;5045015;28;20033;-61
2023/12/04 03:37:26;;;;;;;10.27;5.65;;;;;;;;;;5021787;28;20036;-61
2023/12/04 03:39:52;;;;;;;11.38;5.22;;;;;;;;;;5037659;28;20033;-62
2023/12/04 03:42:17;;;;;;;12.85;5.60;;;;;;;;;;5050620;28;20374;-61
2023/12/04 03:44:42;;;;;;;10.82;5.50;;;;;;;;;;5049989;28;20025;-59
2023/12/04 03:47:08;;;;;;;13.93;6.05;;;;;;;;;;5047778;28;20028;-61
2023/12/04 03:49:33;;;;;;;9.68;5.28;;;;;;;;;;5033006;28;20057;-61
2023/12/04 03:51:58;;;;;;;12.50;5.70;;;;;;;;;;5032085;28;20025;-61
2023/12/04 03:54:24;;;;;;;9.85;5.72;;;;;;;;;;5051835;28;20080;-61
2023/12/04 03:56:49;;;;;;;11.00;5.63;;;;;;;;;;5048818;28;20028;-61
2023/12/04 03:59:15;;;;;;;9.93;5.50;;;;;;;;;;5050957;28;20120;-61
2023/12/04 04:01:40;;;;;;;10.68;5.50;;;;;;;;;;5039899;28;20068;-61
2023/12/04 04:04:05;;;;;;;12.43;5.90;;;;;;;;;;5038376;28;20033;-62
2023/12/04 04:06:31;;;;;;;10.15;5.32;;;;;;;;;;5045015;28;20037;-61
2023/12/04 04:08:56;;;;;;;11.02;5.57;;;;;;;;;;5043964;28;20487;-60
2023/12/04 04:11:21;;;;;;;10.45;5.30;;;;;;;;;;5052111;28;20036;-60
2023/12/04 04:13:47;;;;;;;10.00;5.28;;;;;;;;;;5046126;28;20024;-60
2023/12/04 04:16:15;;;;;;;11.18;5.15;;;;;;;;;;5046693;28;20036;-60
2023/12/04 04:18:41;;;;;;;9.50;5.00;;;;;;;;;;5049657;28;20052;-60
2023/12/04 04:21:06;;;;;;;9.77;5.10;;;;;;;;;;5052112;28;20451;-60
2023/12/04 04:23:32;;;;;;;9.48;5.03;;;;;;;;;;5050859;28;20403;-60
2023/12/04 04:25:57;;;;;;;10.40;5.50;;;;;;;;;;5046893;28;20039;-61
2023/12/04 04:28:23;;;;;;;9.55;5.40;;;;;;;;;;5053092;28;20056;-60
2023/12/04 04:30:48;;;;;;;8.43;4.85;;;;;;;;;;5044277;28;20021;-60
2023/12/04 04:33:14;;;;;;;10.20;5.28;;;;;;;;;;5039040;28;20048;-60
2023/12/04 04:35:39;;;;;;;8.75;4.75;;;;;;;;;;5047733;28;20044;-60
2023/12/04 04:38:04;;;;;;;10.35;5.32;;;;;;;;;;5048086;28;20037;-60
2023/12/04 04:40:30;;;;;;;9.45;4.95;;;;;;;;;;5047264;28;20040;-60
2023/12/04 04:42:55;;;;;;;11.57;5.03;;;;;;;;;;5046572;28;20449;-60
2023/12/04 04:45:20;;;;;;;8.98;4.30;;;;;;;;;;5048067;28;20040;-60
2023/12/04 04:47:46;;;;;;;8.85;4.55;;;;;;;;;;5028253;28;20026;-62
2023/12/04 04:50:11;;;;;;;9.00;4.82;;;;;;;;;;5045036;28;20035;-60
2023/12/04 04:52:37;;;;;;;9.93;4.78;;;;;;;;;;5041566;28;20429;-60
2023/12/04 04:55:05;;;;;;;10.48;4.65;;;;;;;;;;5028931;28;20112;-60
2023/12/04 04:57:30;;;;;;;9.35;4.78;;;;;;;;;;5050380;28;20029;-58
2023/12/04 04:59:55;;;;;;;7.82;4.47;;;;;;;;;;5038483;28;20050;-60
2023/12/04 05:02:21;;;;;;;9.25;5.13;;;;;;;;;;5031200;28;20181;-59
2023/12/04 05:04:46;;;;;;;8.95;4.53;;;;;;;;;;5038657;28;20020;-60
2023/12/04 05:07:12;;;;;;;8.15;4.45;;;;;;;;;;5051330;28;20028;-60
2023/12/04 05:09:38;;;;;;;7.82;4.53;;;;;;;;;;5037653;28;20122;-59
2023/12/04 05:12:03;;;;;;;7.40;4.32;;;;;;;;;;5049391;28;20099;-60
2023/12/04 05:14:29;;;;;;;7.90;4.47;;;;;;;;;;5019412;28;20034;-60
2023/12/04 05:16:54;;;;;;;7.15;4.05;;;;;;;;;;5049839;28;20597;-60
2023/12/04 05:19:19;;;;;;;7.50;4.15;;;;;;;;;;5030663;28;20057;-61
2023/12/04 05:21:45;;;;;;;7.30;4.43;;;;;;;;;;5015063;28;20073;-61
2023/12/04 05:24:10;;;;;;;8.40;4.28;;;;;;;;;;5030790;28;20026;-60
2023/12/04 05:26:36;;;;;;;7.88;4.13;;;;;;;;;;5050419;28;20072;-60
2023/12/04 05:29:01;;;;;;;7.40;3.92;;;;;;;;;;5051572;28;20111;-61
2023/12/04 05:31:27;;;;;;;8.07;4.20;;;;;;;;;;5043607;28;21627;-60
2023/12/04 05:33:52;;;;;;;8.10;4.40;;;;;;;;;;5039036;28;20025;-60
2023/12/04 05:36:18;;;;;;;7.25;4.03;;;;;;;;;;5046801;28;20040;-61
2023/12/04 05:38:43;;;;;;;7.97;4.43;;;;;;;;;;5045073;28;20112;-60
2023/12/04 05:41:08;;;;;;;7.57;4.53;;;;;;;;;;5042218;28;20037;-60
2023/12/04 05:43:34;;;;;;;7.60;4.07;;;;;;;;;;5050615;28;20449;-61
2023/12/04 05:45:59;;;;;;;7.70;4.65;;;;;;;;;;5042484;28;20039;-60
2023/12/04 05:48:24;;;;;;;9.02;4.78;;;;;;;;;;5032570;28;20464;-60
2023/12/04 05:50:50;;;;;;;8.48;4.20;;;;;;;;;;5030123;28;20060;-60
2023/12/04 05:53:16;;;;;;;7.88;4.30;;;;;;;;;;5013229;28;20039;-60
2023/12/04 05:55:42;;;;;;;10.82;4.68;;;;;;;;;;5014642;28;20418;-60
2023/12/04 05:58:07;;;;;;;7.70;4.70;;;;;;;;;;5030290;28;20029;-60
2023/12/04 06:00:32;;;;;;;9.15;4.78;;;;;;;;;;5031781;28;20534;-60
2023/12/04 06:02:58;;;;;;;7.88;4.28;;;;;;;;;;5029739;28;20056;-60
2023/12/04 06:05:23;;;;;;;8.05;4.65;;;;;;;;;;5031799;28;20029;-60
2023/12/04 06:07:49;;;;;;;7.75;4.55;;;;;;;;;;5024445;28;20068;-60
2023/12/04 06:10:14;;;;;;;8.48;4.78;;;;;;;;;;5014613;28;20108;-60
2023/12/04 06:12:40;;;;;;;8.13;4.68;;;;;;;;;;5030894;28;20537;-59
2023/12/04 06:15:06;;;;;;;8.27;4.78;;;;;;;;;;5019164;28;20034;-60
2023/12/04 06:17:31;;;;;;;8.25;4.80;;;;;;;;;;5011578;28;20041;-61
2023/12/04 06:19:56;;;;;;;11.20;4.93;;;;;;;;;;5011256;28;20320;-61
2023/12/04 06:22:22;;;;;;;8.48;4.68;;;;;;;;;;5031485;28;20040;-60
2023/12/04 06:24:48;;;;;;;9.75;4.90;;;;;;;;;;5013813;28;20034;-60
2023/12/04 06:27:20;;;;;;;8.57;4.78;;;;;;;;;;5011409;28;20031;-61
2023/12/04 06:29:46;;;;;;;7.85;4.53;;;;;;;;;;5010878;28;20048;-60
2023/12/04 06:32:12;;;;;;;8.15;4.88;;;;;;;;;;5027897;28;20436;-61
2023/12/04 06:34:38;;;;;;;8.50;4.65;;;;;;;;;;5031252;28;20149;-61
2023/12/04 06:37:07;;;;;;;9.57;5.25;;;;;;;;;;5028283;28;20100;-61
2023/12/04 06:39:33;;;;;;;11.27;5.20;;;;;;;;;;5027831;28;20034;-60
2023/12/04 06:41:59;;;;;;;8.18;4.65;;;;;;;;;;5029007;28;20597;-60
2023/12/04 06:44:25;;;;;;;7.75;4.65;;;;;;;;;;5030220;28;20083;-61
2023/12/04 06:46:52;;;;;;;9.05;4.95;;;;;;;;;;5027898;28;20045;-62
2023/12/04 06:49:18;;;;;;;9.27;5.22;;;;;;;;;;5027398;28;20033;-61
2023/12/04 06:51:43;;;;;;;7.80;4.38;;;;;;;;;;5019813;28;20038;-62
2023/12/04 06:54:09;;;;;;;8.23;4.63;;;;;;;;;;5023765;28;20021;-61
2023/12/04 06:56:34;;;;;;;10.02;4.78;;;;;;;;;;5015054;28;20054;-60
2023/12/04 06:59:00;;;;;;;8.75;4.72;;;;;;;;;;5025612;28;20024;-61
2023/12/04 07:01:25;;;;;;;9.85;4.80;;;;;;;;;;5034956;28;20037;-62
2023/12/04 07:03:50;;;;;;;9.45;5.25;;;;;;;;;;5032890;28;20084;-60
2023/12/04 07:06:16;;;;;;;8.02;4.95;;;;;;;;;;5031636;28;20037;-61
2023/12/04 07:08:42;;;;;;;10.45;5.18;;;;;;;;;;5034066;28;20087;-60
2023/12/04 07:11:08;;;;;;;9.45;5.28;;;;;;;;;;5034341;28;20037;-61
2023/12/04 07:13:34;;;;;;;7.43;4.65;;;;;;;;;;5032698;28;20057;-60
2023/12/04 07:15:59;;;;;;;9.13;5.22;;;;;;;;;;5013285;28;20064;-61
2023/12/04 07:18:25;;;;;;;9.65;5.07;;;;;;;;;;5020178;28;20459;-61
2023/12/04 07:20:51;;;;;;;9.55;5.10;;;;;;;;;;5025159;28;20506;-60
2023/12/04 07:23:16;;;;;;;9.23;4.85;;;;;;;;;;5023511;28;20104;-58
2023/12/04 07:25:41;;;;;;;8.07;4.85;;;;;;;;;;5031931;28;20388;-59
2023/12/04 07:28:07;;;;;;;10.20;4.88;;;;;;;;;;5032580;28;20045;-61
2023/12/04 07:30:33;;;;;;;8.43;4.90;;;;;;;;;;5034175;28;20068;-61
2023/12/04 07:33:02;;;;;;;9.13;5.22;;;;;;;;;;5031778;28;20032;-60
2023/12/04 07:35:27;;;;;;;8.40;4.72;;;;;;;;;;5032591;28;20388;-61
2023/12/04 07:37:53;;;;;;;8.23;4.85;;;;;;;;;;5032983;28;20476;-59
2023/12/04 07:40:18;;;;;;;8.82;4.78;;;;;;;;;;5014474;28;20030;-59
2023/12/04 07:42:44;;;;;;;7.97;5.18;;;;;;;;;;5016659;28;20041;-60
2023/12/04 07:45:10;;;;;;;10.63;4.97;;;;;;;;;;5032570;28;20403;-61
2023/12/04 07:47:36;;;;;;;8.20;5.05;;;;;;;;;;5032093;28;20104;-59
2023/12/04 07:50:01;;;;;;;8.15;4.72;;;;;;;;;;5031956;28;20109;-60
2023/12/04 07:52:27;;;;;;;8.48;5.00;;;;;;;;;;5025725;28;20030;-60
2023/12/04 07:54:52;;;;;;;7.90;4.85;;;;;;;;;;5028592;28;20095;-60
2023/12/04 07:57:18;;;;;;;9.95;5.35;;;;;;;;;;5031535;28;20034;-60
2023/12/04 07:59:43;;;;;;;9.80;5.07;;;;;;;;;;5030892;28;20048;-60
2023/12/04 08:02:09;;;;;;;10.13;5.32;;;;;;;;;;5033149;28;20037;-61
2023/12/04 08:04:34;;;;;;;7.90;4.63;;;;;;;;;;5023598;28;20057;-61
2023/12/04 08:07:00;;;;;;;9.02;4.82;;;;;;;;;;5024352;28;20329;-62
2023/12/04 08:09:25;;;;;;;8.82;5.22;;;;;;;;;;5032375;28;20041;-58
2023/12/04 08:11:51;;;;;;;10.38;5.50;;;;;;;;;;5032579;28;20029;-60
2023/12/04 08:14:17;;;;;;;9.43;5.03;;;;;;;;;;5032059;28;20067;-60
2023/12/04 08:16:42;;;;;;;8.25;5.05;;;;;;;;;;5012814;28;20045;-60
2023/12/04 08:19:07;;;;;;;9.85;4.85;;;;;;;;;;5021020;28;20128;-63
2023/12/04 08:21:33;;;;;;;8.23;4.45;;;;;;;;;;5027270;28;20041;-61
2023/12/04 08:23:58;;;;;;;9.60;5.45;;;;;;;;;;5022785;28;20140;-59
2023/12/04 08:26:25;;;;;;;9.90;4.97;;;;;;;;;;5032853;28;20033;-60
2023/12/04 08:28:53;;;;;;;9.38;4.75;;;;;;;;;;5031101;28;20056;-63
2023/12/04 08:31:19;;;;;;;9.30;5.03;;;;;;;;;;5033174;28;20115;-59
2023/12/04 08:33:45;;;;;;;10.48;5.03;;;;;;;;;;5032061;28;20458;-59
2023/12/04 08:36:11;;;;;;;8.63;4.72;;;;;;;;;;5020916;28;20125;-60
2023/12/04 08:38:36;;;;;;;9.63;5.25;;;;;;;;;;5016987;28;20155;-59
2023/12/04 08:41:03;;;;;;;9.35;5.28;;;;;;;;;;5013389;28;20120;-55
2023/12/04 08:43:29;;;;;;;9.45;5.40;;;;;;;;;;5014965;28;20057;-59
2023/12/04 08:45:55;;;;;;;9.35;5.28;;;;;;;;;;5031794;28;20505;-55
2023/12/04 08:48:20;;;;;;;9.05;5.35;;;;;;;;;;5030749;28;20032;-60
2023/12/04 08:50:45;;;;;;;7.57;4.50;;;;;;;;;;5031823;28;20034;-60
2023/12/04 08:53:12;;;;;;;9.13;5.05;;;;;;;;;;5027660;28;20538;-59
2023/12/04 08:55:37;;;;;;;9.48;4.75;;;;;;;;;;5031490;28;20041;-59
2023/12/04 08:58:03;;;;;;;7.78;4.60;;;;;;;;;;5030902;28;20088;-60
2023/12/04 09:00:28;;;;;;;9.45;4.63;;;;;;;;;;5028458;28;20033;-60
2023/12/04 09:02:54;;;;;;;10.93;5.35;;;;;;;;;;5019801;28;20060;-61
2023/12/04 09:05:19;;;;;;;9.48;5.20;;;;;;;;;;5031017;28;20038;-60
2023/12/04 09:07:45;;;;;;;10.50;5.15;;;;;;;;;;5030165;28;20464;-61
2023/12/04 09:10:10;;;;;;;10.80;5.20;;;;;;;;;;5031897;28;20453;-61
2023/12/04 09:12:37;;;;;;;10.75;5.68;;;;;;;;;;5031097;28;20044;-61
2023/12/04 09:15:04;;;;;;;9.27;5.53;;;;;;;;;;5031235;28;20032;-60
2023/12/04 09:17:30;;;;;;;9.50;5.45;;;;;;;;;;5025375;28;20022;-62
2023/12/04 09:19:55;;;;;;;10.65;5.18;;;;;;;;;;5030537;28;20541;-61
2023/12/04 09:22:20;;;;;;;8.68;4.97;;;;;;;;;;5017213;28;20030;-61
2023/12/04 09:24:46;;;;;;;9.70;5.28;;;;;;;;;;5021976;28;20045;-60
2023/12/04 09:27:11;;;;;;;9.27;5.25;;;;;;;;;;5029959;28;20128;-60
2023/12/04 09:29:37;;;;;;;13.10;4.80;;;;;;;;;;5031687;28;20037;-60
2023/12/04 09:32:03;;;;;;;8.15;5.05;;;;;;;;;;5029043;28;20039;-60
2023/12/04 09:34:28;;;;;;;8.27;5.10;;;;;;;;;;5031352;28;20037;-60
2023/12/04 09:36:53;;;;;;;11.05;4.88;;;;;;;;;;5030936;28;20033;-60
2023/12/04 09:39:19;;;;;;;9.07;5.15;;;;;;;;;;5031715;28;20033;-60
2023/12/04 09:41:46;;;;;;;9.52;5.38;;;;;;;;;;5019064;28;20053;-60
2023/12/04 09:44:12;;;;;;;13.75;5.18;;;;;;;;;;5023503;28;20100;-60
2023/12/04 09:46:37;;;;;;;8.88;5.18;;;;;;;;;;5031475;28;20447;-60
2023/12/04 09:49:04;;;;;;;8.90;4.85;;;;;;;;;;5030621;28;20602;-63
2023/12/04 09:51:30;;;;;;;9.00;5.15;;;;;;;;;;5014105;28;20056;-64
2023/12/04 09:54:00;;;;;;;7.72;4.90;;;;;;;;;;5029885;28;20029;-61
2023/12/04 09:56:26;;;;;;;9.50;5.10;;;;;;;;;;5030512;28;20025;-61
2023/12/04 09:58:59;;;;;;;9.05;4.72;;;;;;;;;;5017924;28;20048;-61
2023/12/04 10:01:26;;;;;;;7.00;4.63;;;;;;;;;;5014509;28;20033;-61
2023/12/04 10:03:51;;;;;;;7.50;4.72;;;;;;;;;;5043195;28;20038;-61
2023/12/04 10:06:19;;;;;;;8.20;5.03;;;;;;;;;;5029234;28;20040;-62
2023/12/04 10:08:45;;;;;;;8.80;5.18;;;;;;;;;;5030983;28;20025;-61
2023/12/04 10:11:12;;;;;;;8.38;4.75;;;;;;;;;;5031014;28;20047;-60
2023/12/04 10:13:38;;;;;;;7.95;4.90;;;;;;;;;;5031353;28;20047;-61
2023/12/04 10:16:03;;;;;;;7.53;4.60;;;;;;;;;;5028393;28;20918;-60
2023/12/04 10:18:31;;;;;;;7.95;4.75;;;;;;;;;;5030904;28;20033;-59
2023/12/04 10:20:58;;;;;;;8.88;4.70;;;;;;;;;;5030380;28;20141;-60
2023/12/04 10:23:40;;;;;;;7.82;4.50;;;;;;;;;;5031490;28;20030;-61
2023/12/04 10:26:07;;;;;;;8.13;4.63;;;;;;;;;;5034994;28;20029;-61
2023/12/04 10:28:33;;;;;;;7.97;4.57;;;;;;;;;;5036051;28;20033;-56
2023/12/04 10:30:59;;;;;;;7.85;4.35;;;;;;;;;;5034465;28;20058;-61
2023/12/04 10:33:29;;;;;;;7.07;4.07;;;;;;;;;;5032656;28;20076;-61
2023/12/04 10:35:57;;;;;;;7.30;4.22;;;;;;;;;;5032959;28;20041;-60
2023/12/04 10:38:23;;;;;;;8.80;4.60;;;;;;;;;;5037521;28;20041;-60
2023/12/04 10:40:48;;;;;;;9.40;4.35;;;;;;;;;;5037154;28;20112;-62
2023/12/04 10:43:19;;;;;;;11.82;4.95;;;;;;;;;;5037434;28;20125;-58
2023/12/04 10:45:46;;;;;;;8.90;4.22;;;;;;;;;;5035115;28;20026;-57
2023/12/04 10:48:13;;;;;;;8.93;4.70;;;;;;;;;;5036921;28;20029;-60
2023/12/04 10:50:49;;;;;;;9.23;4.78;;;;;;;;;;5035386;28;20029;-60
2023/12/04 10:53:16;;;;;;;9.23;4.93;;;;;;;;;;5017597;28;20033;-60
2023/12/04 10:55:44;;;;;;;8.48;4.13;;;;;;;;;;5033208;28;20030;-60
2023/12/04 10:58:17;;;;;;;10.45;4.57;;;;;;;;;;5032697;28;20030;-60
2023/12/04 11:00:48;;;;;;;9.32;4.40;;;;;;;;;;5030782;28;20044;-60
2023/12/04 11:03:20;;;;;;;11.20;4.50;;;;;;;;;;5037246;28;20092;-59
2023/12/04 11:05:51;;;;;;;7.95;4.47;;;;;;;;;;5035353;28;20049;-58
2023/12/04 11:08:18;;;;;;;9.15;4.75;;;;;;;;;;5021254;28;20124;-56
2023/12/04 11:10:52;;;;;;;9.80;4.50;;;;;;;;;;5037190;28;20030;-57
2023/12/04 11:13:22;;;;;;;8.60;4.50;;;;;;;;;;5037306;28;20559;-56
2023/12/04 11:15:50;;;;;;;6.68;3.85;;;;;;;;;;5033812;28;20037;-58
2023/12/04 11:18:17;;;;;;;8.00;4.25;;;;;;;;;;5037483;28;20037;-57
2023/12/04 11:20:57;;;;;;;8.23;4.05;;;;;;;;;;5035799;28;20529;-59
2023/12/04 11:23:24;;;;;;;7.95;4.10;;;;;;;;;;5023733;28;20468;-61
2023/12/04 11:25:50;;;;;;;9.75;4.45;;;;;;;;;;5019753;28;20046;-60
2023/12/04 11:28:17;;;;;;;9.60;4.40;;;;;;;;;;5023664;28;20086;-61
2023/12/04 11:30:43;;;;;;;7.00;4.13;;;;;;;;;;5035120;28;20037;-62
2023/12/04 11:33:10;;;;;;;8.98;4.50;;;;;;;;;;5034720;28;20113;-61
2023/12/04 11:35:38;;;;;;;7.75;4.43;;;;;;;;;;5034615;28;20120;-61
2023/12/04 11:38:06;;;;;;;8.82;4.80;;;;;;;;;;5033347;28;20116;-61
2023/12/04 11:40:32;;;;;;;8.57;4.70;;;;;;;;;;5033940;28;20043;-60
2023/12/04 11:42:58;;;;;;;11.52;4.78;;;;;;;;;;5031579;28;20029;-61
2023/12/04 11:45:23;;;;;;;9.73;4.80;;;;;;;;;;5031921;28;20075;-61
2023/12/04 11:47:56;;;;;;;8.85;4.97;;;;;;;;;;5013497;28;20037;-60
2023/12/04 11:50:22;;;;;;;9.98;5.30;;;;;;;;;;5020374;28;20128;-61
2023/12/04 11:52:48;;;;;;;9.45;5.40;;;;;;;;;;5038469;28;20375;-61
2023/12/04 11:55:19;;;;;;;10.32;4.97;;;;;;;;;;5046889;28;20479;-61
2023/12/04 11:57:45;;;;;;;8.90;4.90;;;;;;;;;;5033174;28;20499;-61
2023/12/04 12:00:12;;;;;;;9.27;5.20;;;;;;;;;;5030126;28;20033;-61
2023/12/04 12:02:46;;;;;;;11.25;4.95;;;;;;;;;;5023910;28;20076;-61
2023/12/04 12:05:12;;;;;;;9.20;4.88;;;;;;;;;;5017346;28;20033;-61
2023/12/04 12:07:37;;;;;;;7.85;5.03;;;;;;;;;;5031769;28;20025;-62
2023/12/04 12:10:03;;;;;;;12.32;5.22;;;;;;;;;;5030626;28;20036;-62
2023/12/04 12:12:31;;;;;;;10.18;5.60;;;;;;;;;;5030288;28;20036;-61
2023/12/04 12:14:57;;;;;;;11.15;5.22;;;;;;;;;;5032569;28;20144;-60
2023/12/04 12:17:22;;;;;;;9.30;4.90;;;;;;;;;;5018023;28;20086;-62
2023/12/04 12:19:47;;;;;;;8.98;5.18;;;;;;;;;;5032536;28;20045;-60
2023/12/04 12:22:13;;;;;;;10.68;4.65;;;;;;;;;;5032653;28;20112;-62
2023/12/04 12:24:39;;;;;;;9.60;5.50;;;;;;;;;;5033575;28;20029;-60
2023/12/04 12:27:05;;;;;;;10.95;5.28;;;;;;;;;;5020531;28;20041;-62
2023/12/04 12:29:30;;;;;;;12.50;5.65;;;;;;;;;;5031375;28;20112;-62
2023/12/04 12:31:56;;;;;;;10.30;5.90;;;;;;;;;;5032251;28;20029;-62
2023/12/04 12:34:21;;;;;;;8.55;5.35;;;;;;;;;;5032833;28;20412;-62
2023/12/04 12:36:47;;;;;;;9.90;5.53;;;;;;;;;;5022280;28;20061;-59
2023/12/04 12:39:13;;;;;;;10.07;5.80;;;;;;;;;;5027595;28;20041;-60
2023/12/04 12:41:39;;;;;;;11.00;5.53;;;;;;;;;;5031283;28;20041;-61
2023/12/04 12:44:05;;;;;;;9.93;5.40;;;;;;;;;;5030216;28;20407;-60
2023/12/04 12:46:31;;;;;;;11.60;6.25;;;;;;;;;;5012857;28;20361;-61
2023/12/04 12:48:57;;;;;;;11.23;5.72;;;;;;;;;;5024716;28;20036;-60
2023/12/04 12:51:24;;;;;;;9.75;5.50;;;;;;;;;;5032855;28;20041;-62
2023/12/04 12:53:49;;;;;;;10.32;5.80;;;;;;;;;;5026070;28;20418;-61
2023/12/04 12:56:14;;;;;;;11.27;5.47;;;;;;;;;;5026681;28;20041;-61
2023/12/04 12:58:41;;;;;;;9.88;5.90;;;;;;;;;;5032334;28;20117;-62
2023/12/04 13:01:10;;;;;;;12.52;6.00;;;;;;;;;;5029909;28;20112;-61
2023/12/04 13:03:36;;;;;;;12.93;5.85;;;;;;;;;;5021117;28;20084;-60
2023/12/04 13:06:01;;;;;;;14.60;6.20;;;;;;;;;;5027869;28;20033;-61
2023/12/04 13:08:27;;;;;;;12.25;6.40;;;;;;;;;;5019514;28;20045;-61
2023/12/04 13:10:53;;;;;;;10.57;6.00;;;;;;;;;;5031796;28;20376;-61
2023/12/04 13:13:18;;;;;;;13.63;6.22;;;;;;;;;;5032300;28;20056;-61
2023/12/04 13:15:44;;;;;;;11.70;6.22;;;;;;;;;;5017016;28;20060;-61
2023/12/04 13:18:09;;;;;;;11.15;6.53;;;;;;;;;;5015786;28;20226;-62
2023/12/04 13:20:35;;;;;;;10.70;6.13;;;;;;;;;;5031766;28;20049;-61
2023/12/04 13:23:03;;;;;;;11.32;6.03;;;;;;;;;;5019998;28;20046;-62
2023/12/04 13:25:28;;;;;;;13.70;6.18;;;;;;;;;;5019122;28;20116;-62
2023/12/04 13:27:54;;;;;;;11.30;5.72;;;;;;;;;;5012577;28;20109;-61
2023/12/04 13:30:20;;;;;;;12.02;6.10;;;;;;;;;;5031940;28;20055;-62
2023/12/04 13:32:45;;;;;;;10.88;5.75;;;;;;;;;;5032033;28;20586;-62
2023/12/04 13:35:11;;;;;;;12.55;6.30;;;;;;;;;;5020654;28;20626;-62
2023/12/04 13:37:38;;;;;;;12.77;6.50;;;;;;;;;;5025427;28;20037;-63
2023/12/04 13:40:06;;;;;;;10.13;5.75;;;;;;;;;;5021414;28;20042;-62
2023/12/04 13:45:16;;;;;;;11.20;6.25;;;;;;;;;;5012853;28;20083;-62
2023/12/04 13:47:43;;;;;;;13.13;6.43;;;;;;;;;;5028329;28;20034;-62
2023/12/04 13:50:09;;;;;;;12.70;6.22;;;;;;;;;;5016149;28;20056;-62
2023/12/04 13:52:35;;;;;;;13.18;6.45;;;;;;;;;;5031762;28;20036;-63
2023/12/04 13:55:08;;;;;;;10.65;6.20;;;;;;;;;;5029681;28;20100;-62
2023/12/04 13:57:44;;;;;;;9.30;5.55;;;;;;;;;;5031005;28;20040;-63
2023/12/04 14:00:10;;;;;;;11.65;5.90;;;;;;;;;;5025203;28;20061;-64
2023/12/04 14:02:37;;;;;;;12.63;5.95;;;;;;;;;;5011851;28;20057;-63
2023/12/04 14:05:03;;;;;;;12.07;6.75;;;;;;;;;;5028187;28;20443;-62
2023/12/04 14:07:28;;;;;;;12.50;6.68;;;;;;;;;;5031618;28;20452;-62
2023/12/04 14:09:54;;;;;;;11.75;6.55;;;;;;;;;;5029903;28;20037;-61
2023/12/04 14:12:19;;;;;;;12.93;6.95;;;;;;;;;;5031557;28;20037;-63
2023/12/04 14:14:45;;;;;;;12.15;7.10;;;;;;;;;;5029975;28;20037;-62
2023/12/04 14:17:11;;;;;;;10.93;6.38;;;;;;;;;;5030443;28;20614;-62
2023/12/04 14:19:39;;;;;;;11.80;6.40;;;;;;;;;;5030316;28;20049;-62
2023/12/04 14:22:04;;;;;;;11.55;6.40;;;;;;;;;;5027429;28;20394;-62
2023/12/04 14:24:30;;;;;;;10.25;6.38;;;;;;;;;;5031045;28;20034;-63
2023/12/04 14:26:55;;;;;;;14.40;6.95;;;;;;;;;;5030353;28;20365;-61
2023/12/04 14:29:21;;;;;;;11.38;6.45;;;;;;;;;;5020181;28;20060;-62
2023/12/04 14:31:46;;;;;;;12.60;6.82;;;;;;;;;;5011166;28;20026;-63